Asan, Guam
Current Conditions -  °F | °C
As of 6:54 PM on Wednesday 28 Jan 2015 (Local Time) from PGUM Reporting Station
Clear Clear  
Wind Chill: 81°   Ceiling: Unl
Heat Index: 86°   Visibility: 10mi
Dew Point: 74°   Wind: 5mph
Humidity: 79%   Direction: 90°E
Pressure: 29.84"   Gusts: NA
Location:  13.47°N, 144.71°E
Report Text: PGUM 280854Z 09004KT 10SM CLR 27/23 A2984 RMK AO2 SLP097 T02720233 51013
Loading
Personal Weather Stations






























Interactive Weather Map New forecast layout! Learn more

10-Day Weather Forecast

Advertisements
Track Severe Weather on mobile